sensor_id;sensor_type;location;lat;lon;timestamp;P1;durP1;ratioP1;P2;durP2;ratioP2
83209;SDS011;73098;47.102;15.428;2023-11-21T00:01:57;6.80;;;5.67;;
83209;SDS011;73098;47.102;15.428;2023-11-21T00:04:24;6.20;;;5.20;;
83209;SDS011;73098;47.102;15.428;2023-11-21T00:06:51;5.87;;;5.27;;
83209;SDS011;73098;47.102;15.428;2023-11-21T00:09:17;7.93;;;6.20;;
83209;SDS011;73098;47.102;15.428;2023-11-21T00:11:44;6.27;;;5.67;;
83209;SDS011;73098;47.102;15.428;2023-11-21T00:14:11;7.53;;;6.67;;
83209;SDS011;73098;47.102;15.428;2023-11-21T00:16:37;8.77;;;6.40;;
83209;SDS011;73098;47.102;15.428;2023-11-21T00:19:04;5.90;;;5.20;;
83209;SDS011;73098;47.102;15.428;2023-11-21T00:21:30;6.67;;;6.07;;
83209;SDS011;73098;47.102;15.428;2023-11-21T00:23:57;6.20;;;5.60;;
83209;SDS011;73098;47.102;15.428;2023-11-21T00:26:23;9.70;;;5.43;;
83209;SDS011;73098;47.102;15.428;2023-11-21T00:28:50;5.60;;;5.10;;
83209;SDS011;73098;47.102;15.428;2023-11-21T00:31:17;6.30;;;5.70;;
83209;SDS011;73098;47.102;15.428;2023-11-21T00:33:43;8.20;;;6.63;;
83209;SDS011;73098;47.102;15.428;2023-11-21T00:36:10;7.10;;;5.70;;
83209;SDS011;73098;47.102;15.428;2023-11-21T00:38:36;7.63;;;6.47;;
83209;SDS011;73098;47.102;15.428;2023-11-21T00:41:03;5.80;;;5.10;;
83209;SDS011;73098;47.102;15.428;2023-11-21T00:43:29;6.17;;;5.57;;
83209;SDS011;73098;47.102;15.428;2023-11-21T00:45:56;8.37;;;6.37;;
83209;SDS011;73098;47.102;15.428;2023-11-21T00:48:23;6.17;;;5.03;;
83209;SDS011;73098;47.102;15.428;2023-11-21T00:50:49;6.83;;;5.07;;
83209;SDS011;73098;47.102;15.428;2023-11-21T00:53:16;5.20;;;4.80;;
83209;SDS011;73098;47.102;15.428;2023-11-21T00:55:42;5.27;;;4.80;;
83209;SDS011;73098;47.102;15.428;2023-11-21T00:58:09;5.63;;;5.00;;
83209;SDS011;73098;47.102;15.428;2023-11-21T01:00:35;6.03;;;4.80;;
83209;SDS011;73098;47.102;15.428;2023-11-21T01:03:02;5.00;;;4.50;;
83209;SDS011;73098;47.102;15.428;2023-11-21T01:05:29;5.30;;;4.80;;
83209;SDS011;73098;47.102;15.428;2023-11-21T01:07:55;6.27;;;4.27;;
83209;SDS011;73098;47.102;15.428;2023-11-21T01:10:22;8.57;;;5.23;;
83209;SDS011;73098;47.102;15.428;2023-11-21T01:12:48;5.90;;;4.63;;
83209;SDS011;73098;47.102;15.428;2023-11-21T01:15:15;5.10;;;4.60;;
83209;SDS011;73098;47.102;15.428;2023-11-21T01:17:41;5.47;;;4.97;;
83209;SDS011;73098;47.102;15.428;2023-11-21T01:20:08;4.80;;;4.50;;
83209;SDS011;73098;47.102;15.428;2023-11-21T01:22:35;5.37;;;4.53;;
83209;SDS011;73098;47.102;15.428;2023-11-21T01:25:02;6.77;;;5.53;;
83209;SDS011;73098;47.102;15.428;2023-11-21T01:27:29;6.93;;;5.47;;
83209;SDS011;73098;47.102;15.428;2023-11-21T01:29:55;6.63;;;5.50;;
83209;SDS011;73098;47.102;15.428;2023-11-21T01:32:22;5.80;;;4.93;;
83209;SDS011;73098;47.102;15.428;2023-11-21T01:34:49;6.67;;;5.70;;
83209;SDS011;73098;47.102;15.428;2023-11-21T01:37:16;5.83;;;5.30;;
83209;SDS011;73098;47.102;15.428;2023-11-21T01:39:43;6.03;;;4.70;;
83209;SDS011;73098;47.102;15.428;2023-11-21T01:42:10;6.43;;;5.83;;
83209;SDS011;73098;47.102;15.428;2023-11-21T01:44:36;6.10;;;5.50;;
83209;SDS011;73098;47.102;15.428;2023-11-21T01:47:03;5.50;;;5.00;;
83209;SDS011;73098;47.102;15.428;2023-11-21T01:49:30;6.07;;;4.90;;
83209;SDS011;73098;47.102;15.428;2023-11-21T01:51:59;6.30;;;5.70;;
83209;SDS011;73098;47.102;15.428;2023-11-21T01:54:26;6.20;;;4.70;;
83209;SDS011;73098;47.102;15.428;2023-11-21T01:56:53;6.53;;;5.20;;
83209;SDS011;73098;47.102;15.428;2023-11-21T01:59:20;5.60;;;5.10;;
83209;SDS011;73098;47.102;15.428;2023-11-21T02:01:47;5.63;;;5.10;;
83209;SDS011;73098;47.102;15.428;2023-11-21T02:04:14;6.00;;;5.40;;
83209;SDS011;73098;47.102;15.428;2023-11-21T02:06:41;5.57;;;5.07;;
83209;SDS011;73098;47.102;15.428;2023-11-21T02:09:07;4.80;;;4.40;;
83209;SDS011;73098;47.102;15.428;2023-11-21T02:11:34;7.43;;;4.97;;
83209;SDS011;73098;47.102;15.428;2023-11-21T02:14:00;5.00;;;4.60;;
83209;SDS011;73098;47.102;15.428;2023-11-21T02:16:27;5.93;;;5.17;;
83209;SDS011;73098;47.102;15.428;2023-11-21T02:18:54;5.70;;;4.80;;
83209;SDS011;73098;47.102;15.428;2023-11-21T02:21:20;5.33;;;4.83;;
83209;SDS011;73098;47.102;15.428;2023-11-21T02:23:47;9.30;;;4.80;;
83209;SDS011;73098;47.102;15.428;2023-11-21T02:26:13;4.87;;;4.47;;
83209;SDS011;73098;47.102;15.428;2023-11-21T02:28:40;5.30;;;4.83;;
83209;SDS011;73098;47.102;15.428;2023-11-21T02:31:06;5.50;;;4.97;;
83209;SDS011;73098;47.102;15.428;2023-11-21T02:33:33;5.20;;;4.63;;
83209;SDS011;73098;47.102;15.428;2023-11-21T02:36:00;5.73;;;5.00;;
83209;SDS011;73098;47.102;15.428;2023-11-21T02:38:27;6.63;;;5.00;;
83209;SDS011;73098;47.102;15.428;2023-11-21T02:40:55;5.40;;;4.90;;
83209;SDS011;73098;47.102;15.428;2023-11-21T02:43:23;5.90;;;5.13;;
83209;SDS011;73098;47.102;15.428;2023-11-21T02:45:49;4.87;;;4.47;;
83209;SDS011;73098;47.102;15.428;2023-11-21T02:48:16;5.77;;;5.03;;
83209;SDS011;73098;47.102;15.428;2023-11-21T02:50:43;5.77;;;5.27;;
83209;SDS011;73098;47.102;15.428;2023-11-21T02:53:09;5.60;;;5.07;;
83209;SDS011;73098;47.102;15.428;2023-11-21T02:55:36;5.70;;;5.10;;
83209;SDS011;73098;47.102;15.428;2023-11-21T02:58:02;7.40;;;5.07;;
83209;SDS011;73098;47.102;15.428;2023-11-21T03:00:29;6.77;;;5.87;;
83209;SDS011;73098;47.102;15.428;2023-11-21T03:02:56;6.27;;;5.20;;
83209;SDS011;73098;47.102;15.428;2023-11-21T03:05:23;8.17;;;5.20;;
83209;SDS011;73098;47.102;15.428;2023-11-21T03:07:49;6.33;;;5.07;;
83209;SDS011;73098;47.102;15.428;2023-11-21T03:10:16;5.80;;;5.30;;
83209;SDS011;73098;47.102;15.428;2023-11-21T03:12:42;6.33;;;5.73;;
83209;SDS011;73098;47.102;15.428;2023-11-21T03:15:09;5.60;;;5.00;;
83209;SDS011;73098;47.102;15.428;2023-11-21T03:17:36;5.43;;;5.00;;
83209;SDS011;73098;47.102;15.428;2023-11-21T03:20:03;5.43;;;4.67;;
83209;SDS011;73098;47.102;15.428;2023-11-21T03:22:31;6.23;;;5.10;;
83209;SDS011;73098;47.102;15.428;2023-11-21T03:24:57;6.03;;;5.43;;
83209;SDS011;73098;47.102;15.428;2023-11-21T03:27:24;5.60;;;5.10;;
83209;SDS011;73098;47.102;15.428;2023-11-21T03:29:50;6.30;;;5.53;;
83209;SDS011;73098;47.102;15.428;2023-11-21T03:32:17;8.80;;;5.60;;
83209;SDS011;73098;47.102;15.428;2023-11-21T03:34:54;7.30;;;5.47;;
83209;SDS011;73098;47.102;15.428;2023-11-21T03:37:21;6.13;;;5.53;;
83209;SDS011;73098;47.102;15.428;2023-11-21T03:39:48;5.60;;;5.00;;
83209;SDS011;73098;47.102;15.428;2023-11-21T03:42:14;5.60;;;4.97;;
83209;SDS011;73098;47.102;15.428;2023-11-21T03:44:41;6.73;;;4.90;;
83209;SDS011;73098;47.102;15.428;2023-11-21T03:47:07;5.93;;;5.43;;
83209;SDS011;73098;47.102;15.428;2023-11-21T03:49:34;5.00;;;4.50;;
83209;SDS011;73098;47.102;15.428;2023-11-21T03:52:00;6.00;;;5.33;;
83209;SDS011;73098;47.102;15.428;2023-11-21T03:54:27;4.77;;;4.37;;
83209;SDS011;73098;47.102;15.428;2023-11-21T03:56:53;5.87;;;5.07;;
83209;SDS011;73098;47.102;15.428;2023-11-21T03:59:20;6.10;;;5.50;;
83209;SDS011;73098;47.102;15.428;2023-11-21T04:01:46;6.07;;;5.03;;
83209;SDS011;73098;47.102;15.428;2023-11-21T04:04:13;4.67;;;4.27;;
83209;SDS011;73098;47.102;15.428;2023-11-21T04:06:39;5.83;;;5.23;;
83209;SDS011;73098;47.102;15.428;2023-11-21T04:09:07;5.40;;;4.90;;
83209;SDS011;73098;47.102;15.428;2023-11-21T04:11:34;5.53;;;5.00;;
83209;SDS011;73098;47.102;15.428;2023-11-21T04:14:00;5.17;;;4.40;;
83209;SDS011;73098;47.102;15.428;2023-11-21T04:16:27;6.40;;;4.93;;
83209;SDS011;73098;47.102;15.428;2023-11-21T04:18:53;5.90;;;4.47;;
83209;SDS011;73098;47.102;15.428;2023-11-21T04:21:20;5.00;;;4.53;;
83209;SDS011;73098;47.102;15.428;2023-11-21T04:23:46;5.30;;;4.03;;
83209;SDS011;73098;47.102;15.428;2023-11-21T04:26:12;4.60;;;4.20;;
83209;SDS011;73098;47.102;15.428;2023-11-21T04:28:39;5.03;;;4.57;;
83209;SDS011;73098;47.102;15.428;2023-11-21T04:31:06;4.80;;;4.33;;
83209;SDS011;73098;47.102;15.428;2023-11-21T04:33:32;5.10;;;4.30;;
83209;SDS011;73098;47.102;15.428;2023-11-21T04:35:59;4.70;;;4.30;;
83209;SDS011;73098;47.102;15.428;2023-11-21T04:38:25;5.37;;;4.87;;
83209;SDS011;73098;47.102;15.428;2023-11-21T04:40:52;5.37;;;4.87;;
83209;SDS011;73098;47.102;15.428;2023-11-21T04:43:18;6.63;;;4.63;;
83209;SDS011;73098;47.102;15.428;2023-11-21T04:45:45;7.03;;;4.30;;
83209;SDS011;73098;47.102;15.428;2023-11-21T04:48:11;4.67;;;4.30;;
83209;SDS011;73098;47.102;15.428;2023-11-21T04:50:38;5.20;;;4.47;;
83209;SDS011;73098;47.102;15.428;2023-11-21T04:53:05;4.57;;;4.17;;
83209;SDS011;73098;47.102;15.428;2023-11-21T04:55:31;5.60;;;4.10;;
83209;SDS011;73098;47.102;15.428;2023-11-21T04:57:57;5.00;;;4.60;;
83209;SDS011;73098;47.102;15.428;2023-11-21T05:00:24;6.57;;;4.20;;
83209;SDS011;73098;47.102;15.428;2023-11-21T05:02:51;4.83;;;4.43;;
83209;SDS011;73098;47.102;15.428;2023-11-21T05:05:18;5.30;;;4.80;;
83209;SDS011;73098;47.102;15.428;2023-11-21T05:07:44;4.60;;;4.20;;
83209;SDS011;73098;47.102;15.428;2023-11-21T05:10:11;5.67;;;5.10;;
83209;SDS011;73098;47.102;15.428;2023-11-21T05:12:38;5.00;;;4.60;;
83209;SDS011;73098;47.102;15.428;2023-11-21T05:15:04;7.10;;;6.30;;
83209;SDS011;73098;47.102;15.428;2023-11-21T05:17:31;5.43;;;4.97;;
83209;SDS011;73098;47.102;15.428;2023-11-21T05:19:58;7.97;;;5.10;;
83209;SDS011;73098;47.102;15.428;2023-11-21T05:22:25;8.10;;;5.10;;
83209;SDS011;73098;47.102;15.428;2023-11-21T05:24:51;7.13;;;6.43;;
83209;SDS011;73098;47.102;15.428;2023-11-21T05:27:18;5.67;;;5.17;;
83209;SDS011;73098;47.102;15.428;2023-11-21T05:29:44;5.70;;;4.70;;
83209;SDS011;73098;47.102;15.428;2023-11-21T05:32:11;5.80;;;5.20;;
83209;SDS011;73098;47.102;15.428;2023-11-21T05:34:37;7.30;;;5.50;;
83209;SDS011;73098;47.102;15.428;2023-11-21T05:37:04;6.63;;;4.53;;
83209;SDS011;73098;47.102;15.428;2023-11-21T05:39:30;5.60;;;5.10;;
83209;SDS011;73098;47.102;15.428;2023-11-21T05:41:57;6.27;;;5.77;;
83209;SDS011;73098;47.102;15.428;2023-11-21T05:44:23;5.80;;;5.20;;
83209;SDS011;73098;47.102;15.428;2023-11-21T05:46:50;7.20;;;5.43;;
83209;SDS011;73098;47.102;15.428;2023-11-21T05:49:16;6.67;;;6.10;;
83209;SDS011;73098;47.102;15.428;2023-11-21T05:51:43;7.40;;;6.70;;
83209;SDS011;73098;47.102;15.428;2023-11-21T05:54:09;7.53;;;6.93;;
83209;SDS011;73098;47.102;15.428;2023-11-21T05:56:36;7.90;;;7.10;;
83209;SDS011;73098;47.102;15.428;2023-11-21T05:59:02;7.07;;;6.40;;
83209;SDS011;73098;47.102;15.428;2023-11-21T06:01:29;6.77;;;5.90;;
83209;SDS011;73098;47.102;15.428;2023-11-21T06:03:55;6.73;;;6.13;;
83209;SDS011;73098;47.102;15.428;2023-11-21T06:06:22;6.00;;;5.40;;
83209;SDS011;73098;47.102;15.428;2023-11-21T06:08:49;6.73;;;6.13;;
83209;SDS011;73098;47.102;15.428;2023-11-21T06:11:15;6.50;;;5.90;;
83209;SDS011;73098;47.102;15.428;2023-11-21T06:13:42;9.27;;;7.90;;
83209;SDS011;73098;47.102;15.428;2023-11-21T06:16:08;8.57;;;7.53;;
83209;SDS011;73098;47.102;15.428;2023-11-21T06:18:35;9.00;;;7.00;;
83209;SDS011;73098;47.102;15.428;2023-11-21T06:21:01;6.40;;;5.80;;
83209;SDS011;73098;47.102;15.428;2023-11-21T06:23:28;7.83;;;6.60;;
83209;SDS011;73098;47.102;15.428;2023-11-21T06:25:54;6.90;;;6.30;;
83209;SDS011;73098;47.102;15.428;2023-11-21T06:28:21;7.00;;;6.10;;
83209;SDS011;73098;47.102;15.428;2023-11-21T06:30:48;8.07;;;7.27;;
83209;SDS011;73098;47.102;15.428;2023-11-21T06:33:14;6.67;;;5.97;;
83209;SDS011;73098;47.102;15.428;2023-11-21T06:35:41;8.00;;;6.37;;
83209;SDS011;73098;47.102;15.428;2023-11-21T06:38:07;6.23;;;5.60;;
83209;SDS011;73098;47.102;15.428;2023-11-21T06:40:34;9.10;;;6.47;;
83209;SDS011;73098;47.102;15.428;2023-11-21T06:43:00;7.87;;;6.77;;
83209;SDS011;73098;47.102;15.428;2023-11-21T06:45:27;9.90;;;6.57;;
83209;SDS011;73098;47.102;15.428;2023-11-21T06:47:53;9.40;;;7.03;;
83209;SDS011;73098;47.102;15.428;2023-11-21T06:50:20;6.63;;;6.10;;
83209;SDS011;73098;47.102;15.428;2023-11-21T06:52:46;8.83;;;7.23;;
83209;SDS011;73098;47.102;15.428;2023-11-21T06:55:13;9.23;;;8.30;;
83209;SDS011;73098;47.102;15.428;2023-11-21T06:57:40;8.73;;;7.27;;
83209;SDS011;73098;47.102;15.428;2023-11-21T07:00:06;8.20;;;6.33;;
83209;SDS011;73098;47.102;15.428;2023-11-21T07:02:33;7.57;;;6.80;;
83209;SDS011;73098;47.102;15.428;2023-11-21T07:05:00;8.43;;;6.90;;
83209;SDS011;73098;47.102;15.428;2023-11-21T07:07:27;7.60;;;6.97;;
83209;SDS011;73098;47.102;15.428;2023-11-21T07:09:54;6.77;;;6.07;;
83209;SDS011;73098;47.102;15.428;2023-11-21T07:12:20;8.10;;;6.93;;
83209;SDS011;73098;47.102;15.428;2023-11-21T07:14:47;7.10;;;6.40;;
83209;SDS011;73098;47.102;15.428;2023-11-21T07:17:13;7.70;;;6.90;;
83209;SDS011;73098;47.102;15.428;2023-11-21T07:19:40;8.20;;;7.40;;
83209;SDS011;73098;47.102;15.428;2023-11-21T07:22:06;7.40;;;6.60;;
83209;SDS011;73098;47.102;15.428;2023-11-21T07:24:33;9.90;;;6.63;;
83209;SDS011;73098;47.102;15.428;2023-11-21T07:27:00;8.23;;;6.53;;
83209;SDS011;73098;47.102;15.428;2023-11-21T07:29:26;9.00;;;6.80;;
83209;SDS011;73098;47.102;15.428;2023-11-21T07:31:53;9.63;;;7.43;;
83209;SDS011;73098;47.102;15.428;2023-11-21T07:34:20;8.57;;;6.90;;
83209;SDS011;73098;47.102;15.428;2023-11-21T07:36:47;6.70;;;6.03;;
83209;SDS011;73098;47.102;15.428;2023-11-21T07:39:13;7.40;;;6.70;;
83209;SDS011;73098;47.102;15.428;2023-11-21T07:41:40;8.20;;;6.03;;
83209;SDS011;73098;47.102;15.428;2023-11-21T07:44:06;7.43;;;6.50;;
83209;SDS011;73098;47.102;15.428;2023-11-21T07:46:33;7.70;;;7.00;;
83209;SDS011;73098;47.102;15.428;2023-11-21T07:48:59;7.77;;;7.07;;
83209;SDS011;73098;47.102;15.428;2023-11-21T07:51:26;6.70;;;6.10;;
83209;SDS011;73098;47.102;15.428;2023-11-21T07:53:52;6.93;;;6.23;;
83209;SDS011;73098;47.102;15.428;2023-11-21T07:56:19;8.13;;;7.13;;
83209;SDS011;73098;47.102;15.428;2023-11-21T07:58:46;8.47;;;7.30;;
83209;SDS011;73098;47.102;15.428;2023-11-21T08:01:13;10.40;;;8.40;;
83209;SDS011;73098;47.102;15.428;2023-11-21T08:03:39;11.53;;;10.00;;
83209;SDS011;73098;47.102;15.428;2023-11-21T08:06:06;15.07;;;11.10;;
83209;SDS011;73098;47.102;15.428;2023-11-21T08:08:33;13.03;;;11.03;;
83209;SDS011;73098;47.102;15.428;2023-11-21T08:11:00;13.90;;;12.03;;
83209;SDS011;73098;47.102;15.428;2023-11-21T08:13:27;14.00;;;11.93;;
83209;SDS011;73098;47.102;15.428;2023-11-21T08:15:55;13.90;;;10.23;;
83209;SDS011;73098;47.102;15.428;2023-11-21T08:18:22;11.97;;;10.77;;
83209;SDS011;73098;47.102;15.428;2023-11-21T08:20:48;13.90;;;12.03;;
83209;SDS011;73098;47.102;15.428;2023-11-21T08:23:15;12.93;;;10.67;;
83209;SDS011;73098;47.102;15.428;2023-11-21T08:25:43;12.40;;;11.10;;
83209;SDS011;73098;47.102;15.428;2023-11-21T08:28:10;12.60;;;10.87;;
83209;SDS011;73098;47.102;15.428;2023-11-21T08:30:36;12.83;;;11.27;;
83209;SDS011;73098;47.102;15.428;2023-11-21T08:33:03;13.30;;;11.70;;
83209;SDS011;73098;47.102;15.428;2023-11-21T08:35:30;16.17;;;12.57;;
83209;SDS011;73098;47.102;15.428;2023-11-21T08:37:57;15.20;;;11.00;;
83209;SDS011;73098;47.102;15.428;2023-11-21T08:40:24;12.00;;;10.07;;
83209;SDS011;73098;47.102;15.428;2023-11-21T08:42:50;29.73;;;26.27;;
83209;SDS011;73098;47.102;15.428;2023-11-21T08:45:17;22.67;;;20.33;;
83209;SDS011;73098;47.102;15.428;2023-11-21T08:47:44;22.17;;;17.50;;
83209;SDS011;73098;47.102;15.428;2023-11-21T08:50:11;15.93;;;14.40;;
83209;SDS011;73098;47.102;15.428;2023-11-21T08:52:38;13.40;;;12.00;;
83209;SDS011;73098;47.102;15.428;2023-11-21T08:55:05;12.40;;;10.87;;
83209;SDS011;73098;47.102;15.428;2023-11-21T08:57:32;11.50;;;10.40;;
83209;SDS011;73098;47.102;15.428;2023-11-21T08:59:58;11.50;;;9.10;;
83209;SDS011;73098;47.102;15.428;2023-11-21T09:02:28;10.93;;;9.93;;
83209;SDS011;73098;47.102;15.428;2023-11-21T09:04:54;11.97;;;10.77;;
83209;SDS011;73098;47.102;15.428;2023-11-21T09:07:21;12.30;;;10.60;;
83209;SDS011;73098;47.102;15.428;2023-11-21T09:09:48;18.07;;;12.13;;
83209;SDS011;73098;47.102;15.428;2023-11-21T09:12:15;11.67;;;10.47;;
83209;SDS011;73098;47.102;15.428;2023-11-21T09:14:42;12.93;;;10.37;;
83209;SDS011;73098;47.102;15.428;2023-11-21T09:17:12;13.33;;;10.40;;
83209;SDS011;73098;47.102;15.428;2023-11-21T09:19:38;15.20;;;10.27;;
83209;SDS011;73098;47.102;15.428;2023-11-21T09:22:05;11.10;;;9.97;;
83209;SDS011;73098;47.102;15.428;2023-11-21T09:24:32;11.40;;;9.57;;
83209;SDS011;73098;47.102;15.428;2023-11-21T09:26:59;11.93;;;10.83;;
83209;SDS011;73098;47.102;15.428;2023-11-21T09:29:26;11.87;;;10.70;;
83209;SDS011;73098;47.102;15.428;2023-11-21T09:31:53;13.10;;;11.43;;
83209;SDS011;73098;47.102;15.428;2023-11-21T09:34:20;11.60;;;10.17;;
83209;SDS011;73098;47.102;15.428;2023-11-21T09:36:47;11.40;;;10.40;;
83209;SDS011;73098;47.102;15.428;2023-11-21T09:39:14;12.77;;;10.80;;
83209;SDS011;73098;47.102;15.428;2023-11-21T09:41:43;11.13;;;9.90;;
83209;SDS011;73098;47.102;15.428;2023-11-21T09:44:12;19.80;;;17.70;;
83209;SDS011;73098;47.102;15.428;2023-11-21T09:46:40;15.03;;;13.43;;
83209;SDS011;73098;47.102;15.428;2023-11-21T09:49:11;15.60;;;12.30;;
83209;SDS011;73098;47.102;15.428;2023-11-21T09:51:40;15.80;;;13.43;;
83209;SDS011;73098;47.102;15.428;2023-11-21T09:54:10;14.77;;;13.27;;
83209;SDS011;73098;47.102;15.428;2023-11-21T09:56:37;16.80;;;13.07;;
83209;SDS011;73098;47.102;15.428;2023-11-21T09:59:04;16.07;;;12.63;;
83209;SDS011;73098;47.102;15.428;2023-11-21T10:01:31;22.60;;;20.20;;
83209;SDS011;73098;47.102;15.428;2023-11-21T10:03:59;21.20;;;19.10;;
83209;SDS011;73098;47.102;15.428;2023-11-21T10:06:26;19.00;;;16.43;;
83209;SDS011;73098;47.102;15.428;2023-11-21T10:08:54;16.33;;;14.70;;
83209;SDS011;73098;47.102;15.428;2023-11-21T10:11:21;20.60;;;13.67;;
83209;SDS011;73098;47.102;15.428;2023-11-21T10:13:51;12.40;;;11.30;;
83209;SDS011;73098;47.102;15.428;2023-11-21T10:16:19;14.07;;;11.17;;
83209;SDS011;73098;47.102;15.428;2023-11-21T10:18:46;13.23;;;12.00;;
83209;SDS011;73098;47.102;15.428;2023-11-21T10:21:13;12.53;;;11.23;;
83209;SDS011;73098;47.102;15.428;2023-11-21T10:23:40;13.23;;;12.03;;
83209;SDS011;73098;47.102;15.428;2023-11-21T10:26:06;11.33;;;10.10;;
83209;SDS011;73098;47.102;15.428;2023-11-21T10:28:58;12.10;;;10.90;;
83209;SDS011;73098;47.102;15.428;2023-11-21T10:31:32;11.10;;;10.00;;
83209;SDS011;73098;47.102;15.428;2023-11-21T10:36:41;12.20;;;9.70;;
83209;SDS011;73098;47.102;15.428;2023-11-21T10:39:08;10.87;;;8.30;;
83209;SDS011;73098;47.102;15.428;2023-11-21T10:41:35;10.00;;;8.93;;
83209;SDS011;73098;47.102;15.428;2023-11-21T10:44:02;11.77;;;10.53;;
83209;SDS011;73098;47.102;15.428;2023-11-21T10:46:29;13.30;;;8.50;;
83209;SDS011;73098;47.102;15.428;2023-11-21T10:48:55;9.70;;;8.50;;
83209;SDS011;73098;47.102;15.428;2023-11-21T10:51:23;9.60;;;8.17;;
83209;SDS011;73098;47.102;15.428;2023-11-21T10:53:51;10.77;;;8.07;;
83209;SDS011;73098;47.102;15.428;2023-11-21T10:56:18;9.53;;;8.63;;
83209;SDS011;73098;47.102;15.428;2023-11-21T10:58:45;10.03;;;8.27;;
83209;SDS011;73098;47.102;15.428;2023-11-21T11:01:12;11.03;;;9.37;;
83209;SDS011;73098;47.102;15.428;2023-11-21T11:03:38;11.10;;;9.37;;
83209;SDS011;73098;47.102;15.428;2023-11-21T11:06:05;9.60;;;8.70;;
83209;SDS011;73098;47.102;15.428;2023-11-21T11:08:32;11.00;;;8.77;;
83209;SDS011;73098;47.102;15.428;2023-11-21T11:11:00;13.10;;;9.57;;
83209;SDS011;73098;47.102;15.428;2023-11-21T11:13:26;10.00;;;9.00;;
83209;SDS011;73098;47.102;15.428;2023-11-21T11:15:58;10.03;;;8.53;;
83209;SDS011;73098;47.102;15.428;2023-11-21T11:18:26;10.70;;;8.60;;
83209;SDS011;73098;47.102;15.428;2023-11-21T11:20:52;10.40;;;9.20;;
83209;SDS011;73098;47.102;15.428;2023-11-21T11:34:55;12.50;;;8.40;;
83209;SDS011;73098;47.102;15.428;2023-11-21T11:37:28;10.43;;;8.77;;
83209;SDS011;73098;47.102;15.428;2023-11-21T11:39:55;9.50;;;8.70;;
83209;SDS011;73098;47.102;15.428;2023-11-21T11:42:21;13.63;;;10.37;;
83209;SDS011;73098;47.102;15.428;2023-11-21T11:44:48;11.77;;;10.50;;
83209;SDS011;73098;47.102;15.428;2023-11-21T11:47:16;13.03;;;9.73;;
83209;SDS011;73098;47.102;15.428;2023-11-21T11:52:44;9.60;;;8.63;;
83209;SDS011;73098;47.102;15.428;2023-11-21T11:55:15;8.90;;;8.00;;
83209;SDS011;73098;47.102;15.428;2023-11-21T11:57:42;9.70;;;8.67;;
83209;SDS011;73098;47.102;15.428;2023-11-21T12:02:40;11.33;;;9.60;;
83209;SDS011;73098;47.102;15.428;2023-11-21T12:05:10;11.33;;;10.13;;
83209;SDS011;73098;47.102;15.428;2023-11-21T12:10:11;10.33;;;9.20;;
83209;SDS011;73098;47.102;15.428;2023-11-21T12:12:41;11.17;;;10.17;;
83209;SDS011;73098;47.102;15.428;2023-11-21T12:15:08;10.77;;;9.53;;
83209;SDS011;73098;47.102;15.428;2023-11-21T12:17:35;11.07;;;9.80;;
83209;SDS011;73098;47.102;15.428;2023-11-21T12:20:04;9.83;;;8.27;;
83209;SDS011;73098;47.102;15.428;2023-11-21T12:22:31;8.90;;;8.03;;
83209;SDS011;73098;47.102;15.428;2023-11-21T12:24:58;9.17;;;8.37;;
83209;SDS011;73098;47.102;15.428;2023-11-21T12:27:26;9.90;;;8.87;;
83209;SDS011;73098;47.102;15.428;2023-11-21T12:29:53;9.20;;;8.33;;
83209;SDS011;73098;47.102;15.428;2023-11-21T12:32:20;9.37;;;8.47;;
83209;SDS011;73098;47.102;15.428;2023-11-21T12:34:47;8.37;;;7.57;;
83209;SDS011;73098;47.102;15.428;2023-11-21T12:37:14;8.60;;;7.80;;
83209;SDS011;73098;47.102;15.428;2023-11-21T12:39:40;9.67;;;8.57;;
83209;SDS011;73098;47.102;15.428;2023-11-21T12:42:07;10.70;;;9.57;;
83209;SDS011;73098;47.102;15.428;2023-11-21T12:44:33;9.60;;;8.70;;
83209;SDS011;73098;47.102;15.428;2023-11-21T12:47:00;10.87;;;9.73;;
83209;SDS011;73098;47.102;15.428;2023-11-21T12:49:26;10.10;;;9.17;;
83209;SDS011;73098;47.102;15.428;2023-11-21T12:51:53;11.33;;;8.40;;
83209;SDS011;73098;47.102;15.428;2023-11-21T12:54:19;10.43;;;8.50;;
83209;SDS011;73098;47.102;15.428;2023-11-21T12:56:46;9.90;;;8.00;;
83209;SDS011;73098;47.102;15.428;2023-11-21T12:59:12;10.00;;;9.03;;
83209;SDS011;73098;47.102;15.428;2023-11-21T13:01:42;12.90;;;9.60;;
83209;SDS011;73098;47.102;15.428;2023-11-21T13:04:09;10.10;;;9.00;;
83209;SDS011;73098;47.102;15.428;2023-11-21T13:06:36;10.00;;;8.97;;
83209;SDS011;73098;47.102;15.428;2023-11-21T13:09:02;9.30;;;8.10;;
83209;SDS011;73098;47.102;15.428;2023-11-21T13:11:29;8.27;;;7.37;;
83209;SDS011;73098;47.102;15.428;2023-11-21T13:13:56;10.50;;;9.50;;
83209;SDS011;73098;47.102;15.428;2023-11-21T13:16:22;9.80;;;8.17;;
83209;SDS011;73098;47.102;15.428;2023-11-21T13:18:49;9.63;;;8.57;;
83209;SDS011;73098;47.102;15.428;2023-11-21T13:21:15;9.40;;;8.47;;
83209;SDS011;73098;47.102;15.428;2023-11-21T13:23:42;11.40;;;8.33;;
83209;SDS011;73098;47.102;15.428;2023-11-21T13:26:09;8.20;;;7.40;;
83209;SDS011;73098;47.102;15.428;2023-11-21T13:28:36;10.47;;;9.33;;
83209;SDS011;73098;47.102;15.428;2023-11-21T13:31:03;9.37;;;7.80;;
83209;SDS011;73098;47.102;15.428;2023-11-21T13:33:32;8.77;;;8.07;;
83209;SDS011;73098;47.102;15.428;2023-11-21T13:35:58;9.60;;;7.80;;
83209;SDS011;73098;47.102;15.428;2023-11-21T13:38:25;8.47;;;7.63;;
83209;SDS011;73098;47.102;15.428;2023-11-21T13:40:52;8.97;;;8.13;;
83209;SDS011;73098;47.102;15.428;2023-11-21T13:43:20;9.53;;;8.57;;
83209;SDS011;73098;47.102;15.428;2023-11-21T13:45:48;13.93;;;8.17;;
83209;SDS011;73098;47.102;15.428;2023-11-21T13:48:15;8.70;;;8.00;;
83209;SDS011;73098;47.102;15.428;2023-11-21T13:50:44;9.70;;;8.67;;
83209;SDS011;73098;47.102;15.428;2023-11-21T13:53:11;14.07;;;8.77;;
83209;SDS011;73098;47.102;15.428;2023-11-21T13:55:38;13.50;;;9.20;;
83209;SDS011;73098;47.102;15.428;2023-11-21T13:58:04;10.53;;;9.20;;
83209;SDS011;73098;47.102;15.428;2023-11-21T14:00:31;10.13;;;8.97;;
83209;SDS011;73098;47.102;15.428;2023-11-21T14:02:57;9.80;;;8.80;;
83209;SDS011;73098;47.102;15.428;2023-11-21T14:05:24;10.77;;;9.77;;
83209;SDS011;73098;47.102;15.428;2023-11-21T14:07:50;12.17;;;8.80;;
83209;SDS011;73098;47.102;15.428;2023-11-21T14:10:17;10.83;;;9.87;;
83209;SDS011;73098;47.102;15.428;2023-11-21T14:12:43;11.03;;;8.97;;
83209;SDS011;73098;47.102;15.428;2023-11-21T14:15:10;9.80;;;8.83;;
83209;SDS011;73098;47.102;15.428;2023-11-21T14:17:36;9.63;;;8.70;;
83209;SDS011;73098;47.102;15.428;2023-11-21T14:20:03;10.60;;;9.50;;
83209;SDS011;73098;47.102;15.428;2023-11-21T14:22:30;10.67;;;9.63;;
83209;SDS011;73098;47.102;15.428;2023-11-21T14:24:56;11.07;;;9.37;;
83209;SDS011;73098;47.102;15.428;2023-11-21T14:27:23;9.60;;;8.70;;
83209;SDS011;73098;47.102;15.428;2023-11-21T14:29:49;10.63;;;9.53;;
83209;SDS011;73098;47.102;15.428;2023-11-21T14:32:16;13.03;;;10.33;;
83209;SDS011;73098;47.102;15.428;2023-11-21T14:34:42;12.83;;;10.47;;
83209;SDS011;73098;47.102;15.428;2023-11-21T14:37:09;11.40;;;10.30;;
83209;SDS011;73098;47.102;15.428;2023-11-21T14:39:36;10.57;;;9.60;;
83209;SDS011;73098;47.102;15.428;2023-11-21T14:42:02;12.13;;;10.27;;
83209;SDS011;73098;47.102;15.428;2023-11-21T14:44:29;10.23;;;9.10;;
83209;SDS011;73098;47.102;15.428;2023-11-21T14:46:55;11.27;;;9.40;;
83209;SDS011;73098;47.102;15.428;2023-11-21T14:49:24;12.40;;;8.73;;